Pilot Knob, New York
Current Conditions -  °F | °C
As of 2:53 PM on Monday 26 Jan 2015 (Local Time) from KGFL Reporting Station
Overcast Overcast  
Wind Chill:   Ceiling: 6000
Heat Index: 18°   Visibility: 10mi
Dew Point:   Wind: 8mph
Humidity: 48%   Direction: 80°E
Pressure: 30.05"   Gusts: NA
Location:  43.5149°N, 73.6285°W
Report Text: KGFL 261953Z AUTO 08007KT 10SM OVC060 M08/M17 A3005 RMK AO2 SLP189 T10781172
Loading
Personal Weather Stations






























Interactive Weather Map New forecast layout! Learn more

10-Day Weather Forecast

Advertisements
Track Severe Weather on mobile